< < Back
Terminal Aerodrome Forecast


Current Version              Previous Versions:   1  2  3  4  5  6  7  8  9  

Terminal Aerodrome Forecast

053
FTUS42 KFFC 181400 AAA
TAFPDK
TAF AMD
KPDK 181407Z 1814/1912 04005KT P6SM SCT025
      TEMPO 1814/1815 6SM BR BKN015
     FM181700 34006KT P6SM SCT045
     FM190500 02005KT P6SM SCT025
     FM190900 05005KT P6SM OVC010=

Latest METAR

875
SAUS70 KWBC 181500 RRE
MTRPDK
METAR KPDK 181453Z 02004KT 8SM FEW019 24/17 A3001 RMK AO2 SLP152
T02390167 51007


USA.gov is the U.S. government's official web portal to all federal, state and local government web resources and services.